« Back
NWS Peachtree City, Ga » Text Product » CSG Terminal Aerodrome Forecast


Printer-friendly Version
Current Version              Previous Versions:   1  2  3  4  5  6  7  8  9  

Terminal Aerodrome Forecast

947
FTUS42 KFFC 210100 AAA
TAFCSG
TAF AMD
KCSG 210155Z 2102/2124 24003KT P6SM FEW250
     FM210600 27002KT P6SM FEW250
     FM211500 30005KT P6SM FEW250
     FM211800 32010G16KT P6SM FEW250=

USA.gov is the U.S. government's official web portal to all federal, state and local government web resources and services.